createdAt,value
2018-11-05T00:01:36.815Z,20.57
2018-11-05T00:04:04.690Z,20.67
2018-11-05T00:06:32.425Z,23.30
2018-11-05T00:09:00.191Z,21.97
2018-11-05T00:11:27.934Z,22.17
2018-11-05T00:13:55.643Z,23.07
2018-11-05T00:16:23.374Z,22.13
2018-11-05T00:18:51.177Z,22.17
2018-11-05T00:21:18.936Z,22.33
2018-11-05T00:23:46.539Z,23.13
2018-11-05T00:26:14.334Z,21.77
2018-11-05T00:28:41.954Z,23.43
2018-11-05T00:31:09.791Z,21.67
2018-11-05T00:33:37.513Z,23.47
2018-11-05T00:36:05.612Z,23.20
2018-11-05T00:38:34.320Z,23.07
2018-11-05T00:41:03.937Z,22.43
2018-11-05T00:43:31.647Z,23.73
2018-11-05T00:45:59.433Z,25.17
2018-11-05T00:48:27.238Z,25.07
2018-11-05T00:50:54.988Z,24.23
2018-11-05T00:53:22.760Z,23.93
2018-11-05T00:55:50.491Z,24.17
2018-11-05T00:58:18.214Z,22.17
2018-11-05T01:00:45.959Z,20.90
2018-11-05T01:03:13.692Z,22.23
2018-11-05T01:05:41.492Z,21.30
2018-11-05T01:08:09.234Z,20.47
2018-11-05T01:10:36.961Z,21.90
2018-11-05T01:13:05.133Z,18.87
2018-11-05T01:15:32.902Z,19.10
2018-11-05T01:18:00.615Z,21.30
2018-11-05T01:20:28.388Z,21.33
2018-11-05T01:22:56.127Z,22.30
2018-11-05T01:25:23.905Z,18.60
2018-11-05T01:27:51.607Z,19.93
2018-11-05T01:30:19.327Z,20.33
2018-11-05T01:32:46.913Z,17.77
2018-11-05T01:35:14.683Z,20.27
2018-11-05T01:37:42.309Z,19.17
2018-11-05T01:40:12.847Z,19.83
2018-11-05T01:42:40.646Z,21.23
2018-11-05T01:45:09.756Z,20.83
2018-11-05T01:47:37.634Z,19.87
2018-11-05T01:50:05.950Z,20.27
2018-11-05T01:52:33.713Z,20.07
2018-11-05T01:55:01.502Z,20.13
2018-11-05T01:57:29.363Z,18.97
2018-11-05T01:59:57.124Z,19.77
2018-11-05T02:02:24.931Z,19.67
2018-11-05T02:04:52.693Z,21.70
2018-11-05T02:07:20.431Z,18.63
2018-11-05T02:09:48.306Z,18.30
2018-11-05T02:12:16.133Z,18.83
2018-11-05T02:14:43.873Z,19.03
2018-11-05T02:17:11.734Z,19.47
2018-11-05T02:19:40.979Z,19.80
2018-11-05T02:22:08.729Z,21.83
2018-11-05T02:24:36.484Z,19.40
2018-11-05T02:27:04.404Z,19.57
2018-11-05T02:29:32.158Z,20.07
2018-11-05T02:31:59.782Z,19.10
2018-11-05T02:34:27.529Z,19.67
2018-11-05T02:36:55.281Z,18.17
2018-11-05T02:39:23.001Z,19.60
2018-11-05T02:41:50.789Z,18.87
2018-11-05T02:44:18.542Z,20.80
2018-11-05T02:46:46.172Z,20.47
2018-11-05T02:49:13.864Z,20.23
2018-11-05T02:51:42.014Z,21.23
2018-11-05T02:54:09.819Z,20.30
2018-11-05T02:56:37.568Z,20.90
2018-11-05T02:59:05.439Z,22.00
2018-11-05T03:01:33.261Z,20.97
2018-11-05T03:04:01.037Z,21.37
2018-11-05T03:06:28.960Z,22.37
2018-11-05T03:08:56.693Z,21.97
2018-11-05T03:11:24.472Z,21.60
2018-11-05T03:13:52.344Z,20.80
2018-11-05T03:16:20.057Z,19.77
2018-11-05T03:18:47.772Z,19.60
2018-11-05T03:21:15.581Z,21.97
2018-11-05T03:23:43.189Z,18.70
2018-11-05T03:26:10.966Z,19.33
2018-11-05T03:28:38.679Z,19.97
2018-11-05T03:31:07.997Z,21.37
2018-11-05T03:33:35.810Z,19.67
2018-11-05T03:36:03.768Z,20.07
2018-11-05T03:38:31.466Z,21.83
2018-11-05T03:40:59.159Z,20.27
2018-11-05T03:43:26.919Z,20.43
2018-11-05T03:45:54.658Z,21.07
2018-11-05T03:48:22.435Z,20.23
2018-11-05T03:50:50.105Z,20.43
2018-11-05T03:53:17.727Z,20.20
2018-11-05T03:55:45.528Z,22.03
2018-11-05T03:58:13.223Z,20.67
2018-11-05T04:00:40.835Z,22.67
2018-11-05T04:03:08.639Z,21.80
2018-11-05T04:05:36.295Z,20.60
2018-11-05T04:08:04.012Z,22.63
2018-11-05T04:10:31.724Z,23.60
2018-11-05T04:12:59.471Z,22.90
2018-11-05T04:15:27.167Z,23.07
2018-11-05T04:17:54.883Z,25.07
2018-11-05T04:20:22.624Z,22.83
2018-11-05T04:22:50.393Z,23.00
2018-11-05T04:25:18.005Z,22.77
2018-11-05T04:27:45.805Z,24.43
2018-11-05T04:30:14.352Z,21.47
2018-11-05T04:32:42.407Z,20.70
2018-11-05T04:35:10.762Z,23.97
2018-11-05T04:37:38.456Z,21.67
2018-11-05T04:40:07.270Z,22.27
2018-11-05T04:42:34.908Z,22.27
2018-11-05T04:45:02.691Z,21.93
2018-11-05T04:47:30.452Z,21.03
2018-11-05T04:49:58.199Z,23.07
2018-11-05T04:52:25.980Z,22.90
2018-11-05T04:54:53.737Z,21.87
2018-11-05T04:57:21.530Z,20.57
2018-11-05T04:59:49.195Z,24.40
2018-11-05T05:02:16.957Z,23.17
2018-11-05T05:04:44.884Z,24.50
2018-11-05T05:07:13.445Z,21.63
2018-11-05T05:09:41.608Z,25.93
2018-11-05T05:12:09.363Z,22.73
2018-11-05T05:14:37.111Z,23.10
2018-11-05T05:17:06.597Z,23.17
2018-11-05T05:19:34.296Z,22.27
2018-11-05T05:22:02.054Z,23.77
2018-11-05T05:24:29.835Z,23.67
2018-11-05T05:26:57.581Z,21.87
2018-11-05T05:29:25.350Z,24.57
2018-11-05T05:31:52.933Z,23.27
2018-11-05T05:34:20.759Z,23.07
2018-11-05T05:36:48.483Z,21.93
2018-11-05T05:39:16.219Z,22.77
2018-11-05T05:41:43.954Z,22.60
2018-11-05T05:44:11.800Z,23.90
2018-11-05T05:46:39.421Z,25.33
2018-11-05T05:49:07.205Z,22.53
2018-11-05T05:51:35.003Z,23.20
2018-11-05T05:54:02.769Z,24.30
2018-11-05T05:56:30.535Z,22.97
2018-11-05T05:59:00.034Z,24.73
2018-11-05T06:01:27.678Z,22.03
2018-11-05T06:03:55.517Z,23.70
2018-11-05T06:06:23.477Z,24.90
2018-11-05T06:08:51.231Z,21.37
2018-11-05T06:11:18.987Z,22.50
2018-11-05T06:13:46.712Z,23.93
2018-11-05T06:16:14.482Z,24.13
2018-11-05T06:18:42.246Z,23.43
2018-11-05T06:21:10.097Z,24.03
2018-11-05T06:23:37.918Z,23.47
2018-11-05T06:26:05.535Z,24.20
2018-11-05T06:28:33.516Z,26.97
2018-11-05T06:31:01.184Z,24.87
2018-11-05T06:33:28.850Z,24.73
2018-11-05T06:35:56.601Z,26.97
2018-11-05T06:38:24.359Z,25.23
2018-11-05T06:40:53.762Z,26.60
2018-11-05T06:43:21.669Z,24.00
2018-11-05T06:45:49.405Z,25.73
2018-11-05T06:48:17.241Z,27.57
2018-11-05T06:50:45.062Z,26.63
2018-11-05T06:53:12.779Z,25.17
2018-11-05T06:55:40.459Z,24.53
2018-11-05T06:58:08.207Z,25.10
2018-11-05T07:00:35.821Z,27.00
2018-11-05T07:03:03.520Z,23.33
2018-11-05T07:05:31.648Z,28.30
2018-11-05T07:07:59.364Z,27.20
2018-11-05T07:10:27.159Z,26.73
2018-11-05T07:12:55.019Z,26.77
2018-11-05T07:15:22.723Z,24.97
2018-11-05T07:17:50.492Z,26.13
2018-11-05T07:20:19.773Z,27.47
2018-11-05T07:22:48.470Z,28.13
2018-11-05T07:25:16.459Z,29.80
2018-11-05T07:27:44.483Z,26.63
2018-11-05T07:30:17.216Z,26.50
2018-11-05T07:32:45.429Z,27.57
2018-11-05T07:35:14.134Z,26.13
2018-11-05T07:37:42.315Z,27.23
2018-11-05T07:40:11.667Z,26.83
2018-11-05T07:42:39.825Z,26.67
2018-11-05T07:45:09.908Z,26.73
2018-11-05T07:47:37.805Z,26.30
2018-11-05T07:50:08.069Z,26.40
2018-11-05T07:52:35.955Z,24.97
2018-11-05T07:55:03.600Z,24.43
2018-11-05T07:57:31.347Z,23.40
2018-11-05T07:59:59.635Z,22.70
2018-11-05T08:02:27.828Z,22.20
2018-11-05T08:04:56.109Z,21.13
2018-11-05T08:07:24.345Z,21.17
2018-11-05T08:09:52.570Z,21.10
2018-11-05T08:12:20.389Z,19.87
2018-11-05T08:14:48.240Z,20.07
2018-11-05T08:17:16.089Z,19.30
2018-11-05T08:19:43.906Z,20.13
2018-11-05T08:22:11.725Z,19.93
2018-11-05T08:24:39.506Z,18.50
2018-11-05T08:27:07.275Z,18.67
2018-11-05T08:29:35.078Z,18.47
2018-11-05T08:32:02.880Z,19.30
2018-11-05T08:34:30.538Z,19.67
2018-11-05T08:36:58.429Z,19.70
2018-11-05T08:39:26.325Z,17.90
2018-11-05T08:41:54.284Z,17.77
2018-11-05T08:44:22.105Z,17.60
2018-11-05T08:46:49.934Z,17.97
2018-11-05T08:49:17.770Z,18.03
2018-11-05T08:51:45.760Z,18.87
2018-11-05T08:54:13.395Z,17.97
2018-11-05T08:56:41.030Z,20.20
2018-11-05T08:59:08.861Z,18.33
2018-11-05T09:01:36.677Z,19.27
2018-11-05T09:04:04.548Z,19.70
2018-11-05T09:06:32.333Z,18.97
2018-11-05T09:09:02.292Z,19.77
2018-11-05T09:11:30.422Z,19.67
2018-11-05T09:13:58.068Z,19.90
2018-11-05T09:16:25.854Z,18.53
2018-11-05T09:18:54.177Z,19.57
2018-11-05T09:21:21.905Z,18.43
2018-11-05T09:23:49.690Z,17.90
2018-11-05T09:26:17.427Z,18.93
2018-11-05T09:28:45.247Z,18.67
2018-11-05T09:31:13.027Z,18.63
2018-11-05T09:33:40.848Z,17.57
2018-11-05T09:36:08.614Z,18.70
2018-11-05T09:38:36.437Z,17.33
2018-11-05T09:41:04.221Z,18.67
2018-11-05T09:43:32.047Z,17.07
2018-11-05T09:46:00.626Z,17.30
2018-11-05T09:48:28.913Z,16.80
2018-11-05T09:50:58.907Z,17.63
2018-11-05T09:53:26.820Z,17.83
2018-11-05T09:55:54.641Z,18.13
2018-11-05T09:58:23.907Z,17.77
2018-11-05T10:00:51.730Z,17.97
2018-11-05T10:03:19.692Z,17.00
2018-11-05T10:05:47.279Z,16.97
2018-11-05T10:08:16.201Z,17.60
2018-11-05T10:10:44.094Z,18.33
2018-11-05T10:13:12.224Z,16.30
2018-11-05T10:15:40.152Z,16.63
2018-11-05T10:18:07.996Z,18.00
2018-11-05T10:20:35.903Z,17.10
2018-11-05T10:23:03.835Z,16.70
2018-11-05T10:25:31.733Z,17.07
2018-11-05T10:28:02.908Z,16.83
2018-11-05T10:30:31.138Z,18.43
2018-11-05T10:32:59.308Z,18.37
2018-11-05T10:35:32.576Z,17.27
2018-11-05T10:38:00.267Z,17.03
2018-11-05T10:40:28.486Z,16.53
2018-11-05T10:42:56.333Z,15.07
2018-11-05T10:45:25.118Z,16.73
2018-11-05T10:47:53.022Z,15.00
2018-11-05T10:50:21.203Z,15.83
2018-11-05T10:52:50.222Z,15.90
2018-11-05T10:55:18.342Z,16.13
2018-11-05T10:57:46.481Z,16.97
2018-11-05T11:00:20.399Z,15.30
2018-11-05T11:02:54.019Z,16.43
2018-11-05T11:05:22.566Z,14.80
2018-11-05T11:07:51.438Z,17.87
2018-11-05T11:10:19.394Z,16.17
2018-11-05T11:12:47.361Z,15.60
2018-11-05T11:15:15.326Z,15.00
2018-11-05T11:17:43.214Z,15.47
2018-11-05T11:20:12.615Z,15.00
2018-11-05T11:22:40.480Z,15.53
2018-11-05T11:25:08.625Z,15.83
2018-11-05T11:27:36.569Z,15.67
2018-11-05T11:30:05.086Z,15.67
2018-11-05T11:32:32.965Z,16.37
2018-11-05T11:35:00.932Z,15.47
2018-11-05T11:37:29.263Z,17.43
2018-11-05T11:39:57.078Z,16.23
2018-11-05T11:42:24.971Z,17.13
2018-11-05T11:44:52.972Z,18.10
2018-11-05T11:47:20.829Z,16.40
2018-11-05T11:49:48.781Z,16.63
2018-11-05T11:52:16.758Z,15.47
2018-11-05T11:54:44.778Z,16.67
2018-11-05T11:57:14.379Z,18.17
2018-11-05T11:59:42.330Z,17.67
2018-11-05T12:02:16.245Z,17.80
2018-11-05T12:04:44.242Z,17.83
2018-11-05T12:07:12.491Z,19.17
2018-11-05T12:09:40.413Z,19.00
2018-11-05T12:12:09.559Z,18.60
2018-11-05T12:14:37.702Z,19.23
2018-11-05T12:17:05.631Z,19.07
2018-11-05T12:19:33.802Z,18.40
2018-11-05T12:22:02.183Z,18.60
2018-11-05T12:24:30.159Z,17.20
2018-11-05T12:26:58.506Z,17.60
2018-11-05T12:29:26.427Z,18.50
2018-11-05T12:31:54.263Z,20.37
2018-11-05T12:34:22.105Z,17.77
2018-11-05T12:36:49.987Z,18.60
2018-11-05T12:39:20.577Z,18.60
2018-11-05T12:41:48.357Z,18.77
2018-11-05T12:44:16.164Z,17.93
2018-11-05T12:46:44.037Z,19.33
2018-11-05T12:49:11.880Z,18.53
2018-11-05T12:51:39.498Z,17.63
2018-11-05T12:54:07.245Z,17.73
2018-11-05T12:56:34.998Z,18.03
2018-11-05T12:59:02.800Z,17.70
2018-11-05T13:01:30.895Z,18.10
2018-11-05T13:03:58.623Z,17.13
2018-11-05T13:06:26.333Z,17.03
2018-11-05T13:08:54.251Z,16.60
2018-11-05T13:11:22.435Z,18.80
2018-11-05T13:13:50.298Z,16.20
2018-11-05T13:16:17.993Z,16.73
2018-11-05T13:18:45.772Z,18.27
2018-11-05T13:21:15.420Z,17.27
2018-11-05T13:23:44.991Z,18.57
2018-11-05T13:26:13.406Z,18.33
2018-11-05T13:28:41.135Z,18.47
2018-11-05T13:31:08.978Z,18.00
2018-11-05T13:33:36.858Z,16.93
2018-11-05T13:36:04.931Z,18.23
2018-11-05T13:38:32.964Z,17.87
2018-11-05T13:41:00.572Z,17.37
2018-11-05T13:43:28.278Z,17.40
2018-11-05T13:45:56.252Z,19.33
2018-11-05T13:48:24.266Z,19.00
2018-11-05T13:50:51.663Z,18.83
2018-11-05T13:53:19.443Z,17.80
2018-11-05T13:55:47.100Z,18.57
2018-11-05T13:58:14.879Z,18.93
2018-11-05T14:00:42.554Z,19.90
2018-11-05T14:03:10.450Z,17.60
2018-11-05T14:05:38.246Z,18.97
2018-11-05T14:08:05.851Z,18.87
2018-11-05T14:10:33.574Z,17.43
2018-11-05T14:13:02.173Z,18.27
2018-11-05T14:15:29.934Z,18.37
2018-11-05T14:17:57.833Z,19.47
2018-11-05T14:20:25.621Z,18.13
2018-11-05T14:22:53.538Z,20.07
2018-11-05T14:25:21.381Z,17.47
2018-11-05T14:27:50.592Z,18.23
2018-11-05T14:30:18.222Z,18.17
2018-11-05T14:32:47.177Z,20.17
2018-11-05T14:35:15.449Z,17.77
2018-11-05T14:37:43.400Z,18.90
2018-11-05T14:40:12.431Z,17.90
2018-11-05T14:42:40.146Z,19.10
2018-11-05T14:45:10.258Z,19.37
2018-11-05T14:47:38.342Z,18.97
2018-11-05T14:50:07.329Z,19.80
2018-11-05T14:52:34.926Z,19.53
2018-11-05T14:55:02.592Z,18.57
2018-11-05T14:57:30.181Z,19.50
2018-11-05T14:59:57.982Z,18.40
2018-11-05T15:02:31.173Z,17.33
2018-11-05T15:04:58.966Z,19.33
2018-11-05T15:07:26.565Z,19.50
2018-11-05T15:09:54.379Z,17.47
2018-11-05T15:12:22.178Z,21.20
2018-11-05T15:14:50.743Z,18.60
2018-11-05T15:17:18.635Z,20.53
2018-11-05T15:19:46.693Z,18.97
2018-11-05T15:22:14.107Z,19.07
2018-11-05T15:24:41.889Z,19.67
2018-11-05T15:27:09.690Z,20.40
2018-11-05T15:29:37.506Z,17.80
2018-11-05T15:32:05.964Z,18.50
2018-11-05T15:34:33.675Z,19.57
2018-11-05T15:37:01.413Z,21.20
2018-11-05T15:39:29.224Z,21.53
2018-11-05T15:41:57.048Z,20.30
2018-11-05T15:44:24.921Z,21.23
2018-11-05T15:46:52.764Z,21.30
2018-11-05T15:49:20.549Z,21.83
2018-11-05T15:51:48.576Z,22.43
2018-11-05T15:54:16.055Z,18.13
2018-11-05T15:56:43.654Z,22.67
2018-11-05T15:59:11.384Z,21.33
2018-11-05T16:01:39.163Z,21.67
2018-11-05T16:04:06.987Z,19.77
2018-11-05T16:06:34.860Z,20.07
2018-11-05T16:09:02.793Z,19.57
2018-11-05T16:11:30.525Z,18.00
2018-11-05T16:13:58.249Z,18.43
2018-11-05T16:16:26.025Z,19.60
2018-11-05T16:18:53.946Z,17.67
2018-11-05T16:21:21.679Z,16.73
2018-11-05T16:23:49.525Z,19.43
2018-11-05T16:26:17.175Z,19.70
2018-11-05T16:28:44.898Z,20.97
2018-11-05T16:31:14.481Z,20.13
2018-11-05T16:33:42.320Z,20.03
2018-11-05T16:36:10.106Z,19.17
2018-11-05T16:38:37.961Z,19.63
2018-11-05T16:41:05.726Z,17.13
2018-11-05T16:43:33.371Z,19.53
2018-11-05T16:46:01.081Z,18.40
2018-11-05T16:48:28.909Z,18.10
2018-11-05T16:50:56.699Z,18.07
2018-11-05T16:53:24.439Z,18.47
2018-11-05T16:55:52.220Z,18.17
2018-11-05T16:58:19.961Z,18.80
2018-11-05T17:00:47.830Z,18.17
2018-11-05T17:03:15.568Z,18.67
2018-11-05T17:05:43.198Z,18.23
2018-11-05T17:08:10.900Z,18.63
2018-11-05T17:10:38.601Z,17.50
2018-11-05T17:13:06.389Z,18.80
2018-11-05T17:15:34.150Z,18.40
2018-11-05T17:18:01.980Z,18.43
2018-11-05T17:20:29.744Z,19.93
2018-11-05T17:22:57.571Z,17.53
2018-11-05T17:25:25.348Z,18.67
2018-11-05T17:27:53.044Z,20.07
2018-11-05T17:30:21.692Z,19.93
2018-11-05T17:32:49.789Z,20.00
2018-11-05T17:35:17.866Z,18.83
2018-11-05T17:37:46.474Z,18.27
2018-11-05T17:40:15.517Z,19.40
2018-11-05T17:42:43.374Z,20.77
2018-11-05T17:45:13.692Z,18.20
2018-11-05T17:47:41.683Z,18.57
2018-11-05T17:50:12.352Z,20.43
2018-11-05T17:52:40.421Z,21.77
2018-11-05T17:55:09.090Z,20.57
2018-11-05T17:57:36.867Z,20.23
2018-11-05T18:00:06.933Z,21.50
2018-11-05T18:02:34.525Z,20.53
2018-11-05T18:05:02.135Z,21.80
2018-11-05T18:07:29.828Z,21.40
2018-11-05T18:09:57.552Z,21.53
2018-11-05T18:12:25.212Z,23.13
2018-11-05T18:14:52.954Z,22.37
2018-11-05T18:17:22.583Z,22.10
2018-11-05T18:19:50.254Z,22.27
2018-11-05T18:22:18.090Z,22.40
2018-11-05T18:24:45.899Z,20.63
2018-11-05T18:27:13.804Z,20.73
2018-11-05T18:29:41.506Z,21.20
2018-11-05T18:32:13.853Z,19.47
2018-11-05T18:34:41.612Z,22.80
2018-11-05T18:37:09.221Z,20.67
2018-11-05T18:39:36.897Z,20.60
2018-11-05T18:42:05.073Z,22.50
2018-11-05T18:44:32.781Z,21.70
2018-11-05T18:47:00.576Z,22.83
2018-11-05T18:49:28.368Z,20.50
2018-11-05T18:51:56.092Z,22.87
2018-11-05T18:54:23.785Z,21.03
2018-11-05T18:56:51.653Z,23.53
2018-11-05T18:59:19.399Z,21.30
2018-11-05T19:01:47.211Z,23.53
2018-11-05T19:04:14.849Z,24.40
2018-11-05T19:06:42.637Z,23.77
2018-11-05T19:09:10.428Z,23.47
2018-11-05T19:11:38.262Z,23.27
2018-11-05T19:14:06.106Z,24.53
2018-11-05T19:16:33.916Z,21.97
2018-11-05T19:19:01.847Z,23.97
2018-11-05T19:21:29.790Z,25.53
2018-11-05T19:23:57.764Z,27.17
2018-11-05T19:26:25.557Z,27.83
2018-11-05T19:28:54.676Z,33.83
2018-11-05T19:31:22.470Z,38.03
2018-11-05T19:33:50.599Z,33.23
2018-11-05T19:36:18.741Z,31.27
2018-11-05T19:38:46.578Z,30.87
2018-11-05T19:41:14.473Z,28.60
2018-11-05T19:43:43.034Z,27.87
2018-11-05T19:46:10.871Z,30.27
2018-11-05T19:48:38.654Z,28.03
2018-11-05T19:51:06.314Z,26.80
2018-11-05T19:53:34.353Z,27.30
2018-11-05T19:56:02.267Z,27.70
2018-11-05T19:58:30.077Z,26.67
2018-11-05T20:00:57.764Z,26.33
2018-11-05T20:03:25.401Z,27.60
2018-11-05T20:05:53.128Z,29.37
2018-11-05T20:08:21.007Z,26.97
2018-11-05T20:10:48.839Z,28.80
2018-11-05T20:13:16.541Z,26.77
2018-11-05T20:15:44.368Z,27.10
2018-11-05T20:18:12.097Z,27.40
2018-11-05T20:20:40.008Z,26.87
2018-11-05T20:23:07.873Z,27.63
2018-11-05T20:25:35.624Z,27.67
2018-11-05T20:28:03.309Z,26.07
2018-11-05T20:30:31.202Z,28.03
2018-11-05T20:32:59.275Z,29.27
2018-11-05T20:35:26.814Z,26.37
2018-11-05T20:37:54.562Z,27.50
2018-11-05T20:40:23.070Z,28.00
2018-11-05T20:42:51.557Z,28.00
2018-11-05T20:45:20.092Z,29.50
2018-11-05T20:47:47.895Z,28.73
2018-11-05T20:50:16.196Z,28.10
2018-11-05T20:52:43.962Z,27.10
2018-11-05T20:55:13.058Z,28.33
2018-11-05T20:57:41.256Z,28.80
2018-11-05T21:00:11.692Z,26.50
2018-11-05T21:02:39.973Z,28.80
2018-11-05T21:05:07.892Z,28.23
2018-11-05T21:07:35.653Z,30.20
2018-11-05T21:10:04.302Z,27.03
2018-11-05T21:12:32.061Z,26.27
2018-11-05T21:14:59.904Z,28.00
2018-11-05T21:17:27.641Z,27.67
2018-11-05T21:19:55.298Z,26.63
2018-11-05T21:22:23.273Z,28.33
2018-11-05T21:24:51.032Z,29.90
2018-11-05T21:27:18.764Z,26.70
2018-11-05T21:29:47.576Z,26.53
2018-11-05T21:32:15.228Z,28.43
2018-11-05T21:34:42.898Z,25.57
2018-11-05T21:37:10.941Z,28.40
2018-11-05T21:39:38.835Z,26.50
2018-11-05T21:42:06.722Z,26.67
2018-11-05T21:44:34.540Z,26.10
2018-11-05T21:47:02.380Z,25.77
2018-11-05T21:49:30.348Z,27.57
2018-11-05T21:51:58.305Z,26.00
2018-11-05T21:54:26.199Z,27.00
2018-11-05T21:56:53.988Z,24.83
2018-11-05T21:59:21.905Z,25.83
2018-11-05T22:01:49.698Z,26.43
2018-11-05T22:04:17.554Z,25.30
2018-11-05T22:06:45.265Z,26.13
2018-11-05T22:09:13.253Z,26.17
2018-11-05T22:11:40.933Z,24.47
2018-11-05T22:14:08.577Z,24.30
2018-11-05T22:16:36.400Z,25.13
2018-11-05T22:19:04.340Z,24.07
2018-11-05T22:21:32.048Z,25.50
2018-11-05T22:23:59.795Z,26.20
2018-11-05T22:26:27.525Z,24.10
2018-11-05T22:28:55.298Z,24.13
2018-11-05T22:31:23.022Z,23.87
2018-11-05T22:33:52.365Z,25.03
2018-11-05T22:36:20.170Z,24.53
2018-11-05T22:38:47.915Z,25.40
2018-11-05T22:41:15.783Z,24.73
2018-11-05T22:43:43.437Z,23.07
2018-11-05T22:46:11.139Z,23.57
2018-11-05T22:48:38.899Z,24.67
2018-11-05T22:51:06.631Z,23.67
2018-11-05T22:53:34.305Z,23.33
2018-11-05T22:56:02.094Z,23.50
2018-11-05T22:58:29.695Z,24.37
2018-11-05T23:01:07.534Z,24.70
2018-11-05T23:03:35.280Z,22.53
2018-11-05T23:06:03.085Z,23.50
2018-11-05T23:08:30.793Z,22.97
2018-11-05T23:10:58.930Z,23.67
2018-11-05T23:13:26.719Z,22.87
2018-11-05T23:15:54.417Z,23.23
2018-11-05T23:18:22.150Z,25.23
2018-11-05T23:20:49.920Z,23.53
2018-11-05T23:23:17.638Z,23.87
2018-11-05T23:25:45.391Z,25.13
2018-11-05T23:28:12.970Z,23.20
2018-11-05T23:30:40.748Z,23.87
2018-11-05T23:33:08.538Z,24.20
2018-11-05T23:35:36.283Z,23.23
2018-11-05T23:38:03.901Z,25.13
2018-11-05T23:40:31.641Z,24.70
2018-11-05T23:42:59.354Z,24.03
2018-11-05T23:45:27.002Z,23.50
2018-11-05T23:47:54.636Z,23.63
2018-11-05T23:50:22.311Z,24.37
2018-11-05T23:52:50.027Z,24.53
2018-11-05T23:55:17.825Z,24.07
2018-11-05T23:57:45.410Z,23.60
